Aeroporto :
LOGIN :

Iscrizione | Disclaimer

   EN    FR    IT 

 










Sommario :    VFR   VFR Marginale   IFR   IFR Intensivo   IFR Molto Intensivo
Visibilità : 
Base nubi : 
>= 8 km
>= 3000ft
5 / 8 km
1000 / 3000 ft
1500m / 5 km
500 / 1000 ft
800 / 1500m
200 / 500 ft
< 800m
< 200 ft
Simboli :   Temporali  Nebbia  Neve Forte  Precipitazioni Forti  Vento > 20 kt
SIGMETs :   Varie  Temporali  Ghiacco  Turbolenza  Onda orograficha  Ceneri Vulcaniche






- Altitudine del aeroporto : 375 ft
- Codice IATA : MST


EHBK - Maastricht Aachen

ULTIMO METAR :
  • 131155Z AUTO 23011KT 200V270 9999 BKN009/// OVC011/// 07/05 Q1001 TEMPO 7000 -SHRA FEW020CB

METARs OBSOLETI :
  • 131125Z AUTO 23011KT 200V260 9999 BKN009 OVC010 07/05 Q1001 TEMPO 7000 -SHRA FEW020CB
  • 131055Z AUTO 23012KT 9999 SCT008 BKN009 OVC011 06/05 Q1001 REDZ TEMPO 7000 -SHRA FEW020CB
  • 131025Z AUTO 22011KT 9999 DZRA BKN008 OVC010 06/05 Q1001 TEMPO 7000 -SHRA FEW020CB
  • 130955Z AUTO 22013KT 9999 BKN008 OVC010 06/05 Q1001 TEMPO 7000 -SHRA FEW020CB
  • 130925Z AUTO 22014KT 9999 -DZ SCT009 OVC010 06/05 Q1001 REDZ TEMPO 7000 -SHRA FEW020CB

TAF TAF EHBK
Valido dal 13 a 12 ore il 14 a 18 ore UTC


131055Z 1312/1418 21011KT 9999 BKN015
PROB30 1312/1314 BKN008
TEMPO 1312/1315 6000 -SHRA SCT015CB
BECMG 1315/1318 18008KT



MetMap, La meteo Aeronautica in un colpo d'occhio ! - Copyright ORBIFLY Dicembre 2007 - Disclaimer

ORBIFLY MET'MAP TEAM :

Programmazione e sviluppo : Alexandra Zaïnal
Concezione e sviluppo : Baudouin d'Aumeries
Co-Programmazione e sviluppo : Marc-Olivier Méhu
Supporto tecnico e logistico : Manuel Goepfert
Aiuto per la traduzione : Arnaldo La Scala

Contatto : metmap@orbifly.com




FONTI E CREDITI :

   NOAA